Terminal Aerodrome Forecast
Issued by NWS

Current Version | Previous Version | Graphics & Text | Print | Product List | Glossary On
Versions: 1 2 3 4 5 6 7 8 9 10 11 12 13 14 15 16 17 18 19 20
862
FTUS41 KILN 281139
TAFLCK
TAF
KLCK 281139Z 2812/2912 15002KT P6SM SCT150 BKN250
     FM281700 21007KT P6SM BKN040
     FM281900 22008KT P6SM VCTS BKN040CB
     FM282300 00000KT P6SM BKN250=

USA.gov is the U.S. government's official web portal to all federal, state and local government web resources and services.